sensor_id;sensor_type;location;lat;lon;timestamp;P1;durP1;ratioP1;P2;durP2;ratioP2
9138;SDS011;4604;48.616;9.548;2023-10-09T00:01:25;20.73;;;4.27;;
9138;SDS011;4604;48.616;9.548;2023-10-09T00:03:52;18.97;;;4.73;;
9138;SDS011;4604;48.616;9.548;2023-10-09T00:06:21;17.77;;;4.50;;
9138;SDS011;4604;48.616;9.548;2023-10-09T00:08:58;14.10;;;3.60;;
9138;SDS011;4604;48.616;9.548;2023-10-09T00:11:36;14.10;;;4.67;;
9138;SDS011;4604;48.616;9.548;2023-10-09T00:14:09;9.53;;;3.67;;
9138;SDS011;4604;48.616;9.548;2023-10-09T00:16:36;13.47;;;4.17;;
9138;SDS011;4604;48.616;9.548;2023-10-09T00:19:09;17.90;;;4.33;;
9138;SDS011;4604;48.616;9.548;2023-10-09T00:21:45;13.80;;;4.27;;
9138;SDS011;4604;48.616;9.548;2023-10-09T00:24:13;14.17;;;4.27;;
9138;SDS011;4604;48.616;9.548;2023-10-09T00:26:47;14.90;;;4.27;;
9138;SDS011;4604;48.616;9.548;2023-10-09T00:29:16;16.30;;;3.80;;
9138;SDS011;4604;48.616;9.548;2023-10-09T00:31:47;14.00;;;3.90;;
9138;SDS011;4604;48.616;9.548;2023-10-09T00:34:20;14.60;;;4.17;;
9138;SDS011;4604;48.616;9.548;2023-10-09T00:36:47;11.93;;;4.00;;
9138;SDS011;4604;48.616;9.548;2023-10-09T00:39:18;15.97;;;4.47;;
9138;SDS011;4604;48.616;9.548;2023-10-09T00:41:59;13.97;;;4.30;;
9138;SDS011;4604;48.616;9.548;2023-10-09T00:44:26;18.73;;;4.20;;
9138;SDS011;4604;48.616;9.548;2023-10-09T00:47:03;13.87;;;3.60;;
9138;SDS011;4604;48.616;9.548;2023-10-09T00:49:45;14.77;;;4.30;;
9138;SDS011;4604;48.616;9.548;2023-10-09T00:52:14;14.23;;;3.90;;
9138;SDS011;4604;48.616;9.548;2023-10-09T00:54:53;15.40;;;3.90;;
9138;SDS011;4604;48.616;9.548;2023-10-09T00:57:26;17.73;;;4.17;;
9138;SDS011;4604;48.616;9.548;2023-10-09T00:59:56;15.33;;;3.73;;
9138;SDS011;4604;48.616;9.548;2023-10-09T01:02:26;13.47;;;4.13;;
9138;SDS011;4604;48.616;9.548;2023-10-09T01:05:02;18.00;;;4.47;;
9138;SDS011;4604;48.616;9.548;2023-10-09T01:07:45;13.13;;;4.00;;
9138;SDS011;4604;48.616;9.548;2023-10-09T01:10:15;10.50;;;3.43;;
9138;SDS011;4604;48.616;9.548;2023-10-09T01:12:43;18.23;;;4.50;;
9138;SDS011;4604;48.616;9.548;2023-10-09T01:15:12;12.90;;;4.03;;
9138;SDS011;4604;48.616;9.548;2023-10-09T01:18:01;17.43;;;4.00;;
9138;SDS011;4604;48.616;9.548;2023-10-09T01:20:29;13.90;;;4.40;;
9138;SDS011;4604;48.616;9.548;2023-10-09T01:23:03;13.87;;;4.47;;
9138;SDS011;4604;48.616;9.548;2023-10-09T01:25:32;17.50;;;3.80;;
9138;SDS011;4604;48.616;9.548;2023-10-09T01:28:07;9.37;;;3.67;;
9138;SDS011;4604;48.616;9.548;2023-10-09T01:30:34;22.60;;;4.20;;
9138;SDS011;4604;48.616;9.548;2023-10-09T01:33:07;15.63;;;4.10;;
9138;SDS011;4604;48.616;9.548;2023-10-09T01:35:47;18.77;;;4.20;;
9138;SDS011;4604;48.616;9.548;2023-10-09T01:38:22;21.00;;;4.43;;
9138;SDS011;4604;48.616;9.548;2023-10-09T01:40:58;10.57;;;3.87;;
9138;SDS011;4604;48.616;9.548;2023-10-09T01:43:32;14.33;;;4.13;;
9138;SDS011;4604;48.616;9.548;2023-10-09T01:45:59;20.23;;;4.10;;
9138;SDS011;4604;48.616;9.548;2023-10-09T01:48:26;18.03;;;4.60;;
9138;SDS011;4604;48.616;9.548;2023-10-09T01:50:54;18.67;;;4.40;;
9138;SDS011;4604;48.616;9.548;2023-10-09T01:53:22;16.57;;;4.57;;
9138;SDS011;4604;48.616;9.548;2023-10-09T01:55:54;21.37;;;5.10;;
9138;SDS011;4604;48.616;9.548;2023-10-09T01:58:21;13.50;;;3.93;;
9138;SDS011;4604;48.616;9.548;2023-10-09T02:00:53;21.60;;;4.67;;
9138;SDS011;4604;48.616;9.548;2023-10-09T02:03:21;11.13;;;3.17;;
9138;SDS011;4604;48.616;9.548;2023-10-09T02:05:49;13.87;;;4.63;;
9138;SDS011;4604;48.616;9.548;2023-10-09T02:08:16;14.57;;;4.23;;
9138;SDS011;4604;48.616;9.548;2023-10-09T02:10:48;15.17;;;4.40;;
9138;SDS011;4604;48.616;9.548;2023-10-09T02:13:15;24.03;;;4.43;;
9138;SDS011;4604;48.616;9.548;2023-10-09T02:15:42;12.80;;;3.73;;
9138;SDS011;4604;48.616;9.548;2023-10-09T02:18:19;9.63;;;3.83;;
9138;SDS011;4604;48.616;9.548;2023-10-09T02:20:52;19.30;;;4.27;;
9138;SDS011;4604;48.616;9.548;2023-10-09T02:23:37;15.40;;;3.60;;
9138;SDS011;4604;48.616;9.548;2023-10-09T02:26:07;9.90;;;3.87;;
9138;SDS011;4604;48.616;9.548;2023-10-09T02:28:35;16.93;;;3.80;;
9138;SDS011;4604;48.616;9.548;2023-10-09T02:31:09;15.23;;;4.50;;
9138;SDS011;4604;48.616;9.548;2023-10-09T02:33:37;17.23;;;4.17;;
9138;SDS011;4604;48.616;9.548;2023-10-09T02:36:05;14.27;;;3.93;;
9138;SDS011;4604;48.616;9.548;2023-10-09T02:38:32;13.23;;;4.30;;
9138;SDS011;4604;48.616;9.548;2023-10-09T02:41:01;16.80;;;4.53;;
9138;SDS011;4604;48.616;9.548;2023-10-09T02:43:44;14.80;;;4.10;;
9138;SDS011;4604;48.616;9.548;2023-10-09T02:46:12;20.67;;;4.33;;
9138;SDS011;4604;48.616;9.548;2023-10-09T02:48:42;14.40;;;4.23;;
9138;SDS011;4604;48.616;9.548;2023-10-09T02:51:12;8.47;;;3.97;;
9138;SDS011;4604;48.616;9.548;2023-10-09T02:53:47;11.60;;;3.77;;
9138;SDS011;4604;48.616;9.548;2023-10-09T02:56:15;12.53;;;3.97;;
9138;SDS011;4604;48.616;9.548;2023-10-09T02:58:50;15.87;;;4.27;;
9138;SDS011;4604;48.616;9.548;2023-10-09T03:01:17;14.93;;;4.63;;
9138;SDS011;4604;48.616;9.548;2023-10-09T03:03:44;13.00;;;4.03;;
9138;SDS011;4604;48.616;9.548;2023-10-09T03:06:12;15.27;;;4.57;;
9138;SDS011;4604;48.616;9.548;2023-10-09T03:08:48;21.57;;;4.73;;
9138;SDS011;4604;48.616;9.548;2023-10-09T03:11:15;11.57;;;3.90;;
9138;SDS011;4604;48.616;9.548;2023-10-09T03:13:44;13.30;;;3.90;;
9138;SDS011;4604;48.616;9.548;2023-10-09T03:16:14;21.57;;;4.60;;
9138;SDS011;4604;48.616;9.548;2023-10-09T03:18:44;14.20;;;4.30;;
9138;SDS011;4604;48.616;9.548;2023-10-09T03:21:13;16.17;;;4.73;;
9138;SDS011;4604;48.616;9.548;2023-10-09T03:23:42;12.30;;;4.47;;
9138;SDS011;4604;48.616;9.548;2023-10-09T03:26:09;18.37;;;4.40;;
9138;SDS011;4604;48.616;9.548;2023-10-09T03:28:36;18.87;;;4.50;;
9138;SDS011;4604;48.616;9.548;2023-10-09T03:31:02;19.87;;;4.57;;
9138;SDS011;4604;48.616;9.548;2023-10-09T03:33:33;13.93;;;3.47;;
9138;SDS011;4604;48.616;9.548;2023-10-09T03:36:01;10.37;;;3.77;;
9138;SDS011;4604;48.616;9.548;2023-10-09T03:38:32;12.33;;;3.83;;
9138;SDS011;4604;48.616;9.548;2023-10-09T03:41:01;12.60;;;4.20;;
9138;SDS011;4604;48.616;9.548;2023-10-09T03:43:30;18.37;;;5.07;;
9138;SDS011;4604;48.616;9.548;2023-10-09T03:46:02;9.60;;;3.93;;
9138;SDS011;4604;48.616;9.548;2023-10-09T03:48:30;13.27;;;4.40;;
9138;SDS011;4604;48.616;9.548;2023-10-09T03:51:01;14.10;;;4.50;;
9138;SDS011;4604;48.616;9.548;2023-10-09T03:53:46;24.27;;;4.63;;
9138;SDS011;4604;48.616;9.548;2023-10-09T03:56:13;14.00;;;4.40;;
9138;SDS011;4604;48.616;9.548;2023-10-09T03:58:43;14.43;;;4.40;;
9138;SDS011;4604;48.616;9.548;2023-10-09T04:01:11;18.00;;;4.13;;
9138;SDS011;4604;48.616;9.548;2023-10-09T04:03:46;24.20;;;6.17;;
9138;SDS011;4604;48.616;9.548;2023-10-09T04:06:15;13.70;;;5.20;;
9138;SDS011;4604;48.616;9.548;2023-10-09T04:08:43;13.77;;;6.27;;
9138;SDS011;4604;48.616;9.548;2023-10-09T04:11:13;14.17;;;4.37;;
9138;SDS011;4604;48.616;9.548;2023-10-09T04:13:47;15.10;;;4.73;;
9138;SDS011;4604;48.616;9.548;2023-10-09T04:16:15;18.30;;;4.17;;
9138;SDS011;4604;48.616;9.548;2023-10-09T04:19:00;18.53;;;4.03;;
9138;SDS011;4604;48.616;9.548;2023-10-09T04:21:37;11.93;;;4.00;;
9138;SDS011;4604;48.616;9.548;2023-10-09T04:24:03;13.03;;;4.03;;
9138;SDS011;4604;48.616;9.548;2023-10-09T04:26:49;9.60;;;3.77;;
9138;SDS011;4604;48.616;9.548;2023-10-09T04:29:21;12.77;;;4.53;;
9138;SDS011;4604;48.616;9.548;2023-10-09T04:31:52;6.83;;;3.63;;
9138;SDS011;4604;48.616;9.548;2023-10-09T04:34:20;14.57;;;3.67;;
9138;SDS011;4604;48.616;9.548;2023-10-09T04:37:01;8.33;;;3.87;;
9138;SDS011;4604;48.616;9.548;2023-10-09T04:39:45;19.03;;;4.13;;
9138;SDS011;4604;48.616;9.548;2023-10-09T04:42:26;11.37;;;3.80;;
9138;SDS011;4604;48.616;9.548;2023-10-09T04:45:01;9.33;;;4.40;;
9138;SDS011;4604;48.616;9.548;2023-10-09T04:48:01;15.90;;;4.40;;
9138;SDS011;4604;48.616;9.548;2023-10-09T04:50:32;8.70;;;3.57;;
9138;SDS011;4604;48.616;9.548;2023-10-09T04:53:30;11.73;;;4.33;;
9138;SDS011;4604;48.616;9.548;2023-10-09T04:56:04;11.37;;;3.47;;
9138;SDS011;4604;48.616;9.548;2023-10-09T04:58:40;14.63;;;4.00;;
9138;SDS011;4604;48.616;9.548;2023-10-09T05:01:08;11.97;;;3.60;;
9138;SDS011;4604;48.616;9.548;2023-10-09T05:04:01;11.07;;;3.77;;
9138;SDS011;4604;48.616;9.548;2023-10-09T05:06:29;8.47;;;3.30;;
9138;SDS011;4604;48.616;9.548;2023-10-09T05:09:10;12.40;;;3.90;;
9138;SDS011;4604;48.616;9.548;2023-10-09T05:11:40;14.87;;;3.97;;
9138;SDS011;4604;48.616;9.548;2023-10-09T05:14:29;12.17;;;3.90;;
9138;SDS011;4604;48.616;9.548;2023-10-09T05:17:05;11.53;;;3.87;;
9138;SDS011;4604;48.616;9.548;2023-10-09T05:19:31;9.50;;;3.83;;
9138;SDS011;4604;48.616;9.548;2023-10-09T05:22:24;8.53;;;3.07;;
9138;SDS011;4604;48.616;9.548;2023-10-09T05:25:04;9.47;;;3.33;;
9138;SDS011;4604;48.616;9.548;2023-10-09T05:27:45;7.20;;;3.50;;
9138;SDS011;4604;48.616;9.548;2023-10-09T05:30:15;12.27;;;3.87;;
9138;SDS011;4604;48.616;9.548;2023-10-09T05:32:51;19.17;;;4.10;;
9138;SDS011;4604;48.616;9.548;2023-10-09T05:35:20;13.63;;;4.50;;
9138;SDS011;4604;48.616;9.548;2023-10-09T05:37:55;20.77;;;6.67;;
9138;SDS011;4604;48.616;9.548;2023-10-09T05:40:28;25.73;;;6.93;;
9138;SDS011;4604;48.616;9.548;2023-10-09T05:42:56;28.97;;;6.67;;
9138;SDS011;4604;48.616;9.548;2023-10-09T05:45:28;20.80;;;5.50;;
9138;SDS011;4604;48.616;9.548;2023-10-09T05:48:12;12.03;;;5.10;;
9138;SDS011;4604;48.616;9.548;2023-10-09T05:51:10;14.10;;;5.10;;
9138;SDS011;4604;48.616;9.548;2023-10-09T05:53:44;24.07;;;5.93;;
9138;SDS011;4604;48.616;9.548;2023-10-09T05:56:38;13.10;;;5.07;;
9138;SDS011;4604;48.616;9.548;2023-10-09T05:59:22;14.47;;;4.60;;
9138;SDS011;4604;48.616;9.548;2023-10-09T06:02:11;11.57;;;3.97;;
9138;SDS011;4604;48.616;9.548;2023-10-09T06:04:58;15.40;;;4.33;;
9138;SDS011;4604;48.616;9.548;2023-10-09T06:07:25;19.80;;;4.93;;
9138;SDS011;4604;48.616;9.548;2023-10-09T06:10:11;8.70;;;4.07;;
9138;SDS011;4604;48.616;9.548;2023-10-09T06:12:54;9.23;;;4.30;;
9138;SDS011;4604;48.616;9.548;2023-10-09T06:15:28;13.30;;;4.40;;
9138;SDS011;4604;48.616;9.548;2023-10-09T06:18:16;20.83;;;4.60;;
9138;SDS011;4604;48.616;9.548;2023-10-09T06:20:57;14.23;;;5.00;;
9138;SDS011;4604;48.616;9.548;2023-10-09T06:23:41;12.20;;;4.33;;
9138;SDS011;4604;48.616;9.548;2023-10-09T06:26:34;11.70;;;4.10;;
9138;SDS011;4604;48.616;9.548;2023-10-09T06:29:02;9.77;;;3.97;;
9138;SDS011;4604;48.616;9.548;2023-10-09T06:31:41;15.40;;;4.37;;
9138;SDS011;4604;48.616;9.548;2023-10-09T06:34:24;14.97;;;5.30;;
9138;SDS011;4604;48.616;9.548;2023-10-09T06:37:00;13.90;;;5.50;;
9138;SDS011;4604;48.616;9.548;2023-10-09T06:39:34;15.97;;;5.07;;
9138;SDS011;4604;48.616;9.548;2023-10-09T06:42:18;7.67;;;3.70;;
9138;SDS011;4604;48.616;9.548;2023-10-09T06:45:00;9.37;;;3.57;;
9138;SDS011;4604;48.616;9.548;2023-10-09T06:47:40;16.80;;;4.00;;
9138;SDS011;4604;48.616;9.548;2023-10-09T06:50:07;12.73;;;3.83;;
9138;SDS011;4604;48.616;9.548;2023-10-09T06:53:12;9.47;;;3.30;;
9138;SDS011;4604;48.616;9.548;2023-10-09T06:55:53;8.07;;;3.50;;
9138;SDS011;4604;48.616;9.548;2023-10-09T06:58:30;12.57;;;3.13;;
9138;SDS011;4604;48.616;9.548;2023-10-09T07:01:08;14.10;;;3.57;;
9138;SDS011;4604;48.616;9.548;2023-10-09T07:03:48;11.32;;;2.95;;
9138;SDS011;4604;48.616;9.548;2023-10-09T07:06:25;9.33;;;3.50;;
9138;SDS011;4604;48.616;9.548;2023-10-09T07:09:09;9.87;;;2.90;;
9138;SDS011;4604;48.616;9.548;2023-10-09T07:11:44;13.37;;;3.30;;
9138;SDS011;4604;48.616;9.548;2023-10-09T07:14:26;11.70;;;3.47;;
9138;SDS011;4604;48.616;9.548;2023-10-09T07:17:20;10.43;;;3.17;;
9138;SDS011;4604;48.616;9.548;2023-10-09T07:19:52;10.95;;;3.45;;
9138;SDS011;4604;48.616;9.548;2023-10-09T07:22:38;6.68;;;2.97;;
9138;SDS011;4604;48.616;9.548;2023-10-09T07:25:21;11.77;;;3.70;;
9138;SDS011;4604;48.616;9.548;2023-10-09T07:28:06;19.45;;;4.88;;
9138;SDS011;4604;48.616;9.548;2023-10-09T07:30:54;23.70;;;7.38;;
9138;SDS011;4604;48.616;9.548;2023-10-09T07:33:24;22.17;;;7.28;;
9138;SDS011;4604;48.616;9.548;2023-10-09T07:36:16;27.30;;;8.43;;
9138;SDS011;4604;48.616;9.548;2023-10-09T07:38:54;15.48;;;6.78;;
9138;SDS011;4604;48.616;9.548;2023-10-09T07:41:21;20.67;;;8.10;;
9138;SDS011;4604;48.616;9.548;2023-10-09T07:44:03;25.45;;;7.03;;
9138;SDS011;4604;48.616;9.548;2023-10-09T07:46:45;15.55;;;5.28;;
9138;SDS011;4604;48.616;9.548;2023-10-09T07:49:39;18.67;;;5.45;;
9138;SDS011;4604;48.616;9.548;2023-10-09T07:52:07;20.63;;;6.63;;
9138;SDS011;4604;48.616;9.548;2023-10-09T07:54:34;14.07;;;4.85;;
9138;SDS011;4604;48.616;9.548;2023-10-09T07:57:01;26.83;;;7.55;;
9138;SDS011;4604;48.616;9.548;2023-10-09T07:59:41;18.50;;;6.03;;
9138;SDS011;4604;48.616;9.548;2023-10-09T08:02:19;22.38;;;6.22;;
9138;SDS011;4604;48.616;9.548;2023-10-09T08:04:58;15.43;;;4.25;;
9138;SDS011;4604;48.616;9.548;2023-10-09T08:07:29;17.50;;;4.72;;
9138;SDS011;4604;48.616;9.548;2023-10-09T08:10:00;12.40;;;4.57;;
9138;SDS011;4604;48.616;9.548;2023-10-09T08:12:53;19.38;;;4.80;;
9138;SDS011;4604;48.616;9.548;2023-10-09T08:15:46;18.17;;;5.45;;
9138;SDS011;4604;48.616;9.548;2023-10-09T08:18:18;26.27;;;5.18;;
9138;SDS011;4604;48.616;9.548;2023-10-09T08:20:54;19.50;;;6.35;;
9138;SDS011;4604;48.616;9.548;2023-10-09T08:23:35;34.55;;;10.50;;
9138;SDS011;4604;48.616;9.548;2023-10-09T08:26:14;36.63;;;12.57;;
9138;SDS011;4604;48.616;9.548;2023-10-09T08:28:54;31.42;;;10.93;;
9138;SDS011;4604;48.616;9.548;2023-10-09T08:31:40;26.25;;;7.53;;
9138;SDS011;4604;48.616;9.548;2023-10-09T08:34:11;22.20;;;6.20;;
9138;SDS011;4604;48.616;9.548;2023-10-09T08:36:51;24.23;;;5.82;;
9138;SDS011;4604;48.616;9.548;2023-10-09T08:39:19;21.10;;;7.45;;
9138;SDS011;4604;48.616;9.548;2023-10-09T08:41:54;21.20;;;6.25;;
9138;SDS011;4604;48.616;9.548;2023-10-09T08:44:23;16.50;;;4.80;;
9138;SDS011;4604;48.616;9.548;2023-10-09T08:46:52;19.00;;;4.93;;
9138;SDS011;4604;48.616;9.548;2023-10-09T08:49:23;15.95;;;4.57;;
9138;SDS011;4604;48.616;9.548;2023-10-09T08:51:52;14.20;;;4.57;;
9138;SDS011;4604;48.616;9.548;2023-10-09T08:54:20;20.88;;;5.28;;
9138;SDS011;4604;48.616;9.548;2023-10-09T08:56:47;16.38;;;4.75;;
9138;SDS011;4604;48.616;9.548;2023-10-09T08:59:17;11.77;;;4.60;;
9138;SDS011;4604;48.616;9.548;2023-10-09T09:01:44;12.48;;;5.55;;
9138;SDS011;4604;48.616;9.548;2023-10-09T09:07:05;11.15;;;4.55;;
9138;SDS011;4604;48.616;9.548;2023-10-09T09:09:32;21.23;;;5.63;;
9138;SDS011;4604;48.616;9.548;2023-10-09T09:11:59;15.20;;;5.30;;
9138;SDS011;4604;48.616;9.548;2023-10-09T09:14:35;15.77;;;4.53;;
9138;SDS011;4604;48.616;9.548;2023-10-09T09:17:03;14.23;;;4.22;;
9138;SDS011;4604;48.616;9.548;2023-10-09T09:19:31;14.07;;;4.28;;
9138;SDS011;4604;48.616;9.548;2023-10-09T09:22:03;12.73;;;4.13;;
9138;SDS011;4604;48.616;9.548;2023-10-09T09:24:40;14.77;;;5.03;;
9138;SDS011;4604;48.616;9.548;2023-10-09T09:27:25;16.88;;;4.03;;
9138;SDS011;4604;48.616;9.548;2023-10-09T09:30:26;12.98;;;3.72;;
9138;SDS011;4604;48.616;9.548;2023-10-09T09:32:58;16.17;;;3.97;;
9138;SDS011;4604;48.616;9.548;2023-10-09T09:35:55;12.55;;;4.07;;
9138;SDS011;4604;48.616;9.548;2023-10-09T09:38:25;15.40;;;3.58;;
9138;SDS011;4604;48.616;9.548;2023-10-09T09:40:54;15.10;;;3.28;;
9138;SDS011;4604;48.616;9.548;2023-10-09T09:43:23;18.13;;;3.90;;
9138;SDS011;4604;48.616;9.548;2023-10-09T09:45:51;9.55;;;3.92;;
9138;SDS011;4604;48.616;9.548;2023-10-09T09:48:21;12.93;;;3.63;;
9138;SDS011;4604;48.616;9.548;2023-10-09T09:50:49;18.20;;;4.28;;
9138;SDS011;4604;48.616;9.548;2023-10-09T09:53:19;17.58;;;4.63;;
9138;SDS011;4604;48.616;9.548;2023-10-09T09:55:50;19.35;;;4.70;;
9138;SDS011;4604;48.616;9.548;2023-10-09T09:58:23;10.82;;;3.80;;
9138;SDS011;4604;48.616;9.548;2023-10-09T10:00:52;19.30;;;4.15;;
9138;SDS011;4604;48.616;9.548;2023-10-09T10:03:26;14.68;;;4.10;;
9138;SDS011;4604;48.616;9.548;2023-10-09T10:05:58;11.18;;;4.20;;
9138;SDS011;4604;48.616;9.548;2023-10-09T10:08:30;18.58;;;4.55;;
9138;SDS011;4604;48.616;9.548;2023-10-09T10:10:59;18.63;;;5.68;;
9138;SDS011;4604;48.616;9.548;2023-10-09T10:16:24;13.15;;;3.97;;
9138;SDS011;4604;48.616;9.548;2023-10-09T10:18:59;20.08;;;4.85;;
9138;SDS011;4604;48.616;9.548;2023-10-09T10:21:46;13.50;;;4.07;;
9138;SDS011;4604;48.616;9.548;2023-10-09T10:27:24;17.52;;;4.55;;
9138;SDS011;4604;48.616;9.548;2023-10-09T10:32:59;16.40;;;3.90;;
9138;SDS011;4604;48.616;9.548;2023-10-09T10:35:34;20.17;;;3.83;;
9138;SDS011;4604;48.616;9.548;2023-10-09T10:38:23;22.85;;;4.22;;
9138;SDS011;4604;48.616;9.548;2023-10-09T10:41:07;23.13;;;4.07;;
9138;SDS011;4604;48.616;9.548;2023-10-09T10:43:41;18.90;;;4.07;;
9138;SDS011;4604;48.616;9.548;2023-10-09T10:46:45;22.40;;;4.18;;
9138;SDS011;4604;48.616;9.548;2023-10-09T10:49:17;34.67;;;6.00;;
9138;SDS011;4604;48.616;9.548;2023-10-09T10:51:47;24.38;;;4.47;;
9138;SDS011;4604;48.616;9.548;2023-10-09T10:54:20;20.73;;;4.10;;
9138;SDS011;4604;48.616;9.548;2023-10-09T10:57:13;25.98;;;4.57;;
9138;SDS011;4604;48.616;9.548;2023-10-09T10:59:46;20.42;;;4.38;;
9138;SDS011;4604;48.616;9.548;2023-10-09T11:02:14;26.92;;;5.07;;
9138;SDS011;4604;48.616;9.548;2023-10-09T11:04:53;19.17;;;4.85;;
9138;SDS011;4604;48.616;9.548;2023-10-09T11:07:39;24.20;;;3.97;;
9138;SDS011;4604;48.616;9.548;2023-10-09T11:10:07;19.95;;;4.32;;
9138;SDS011;4604;48.616;9.548;2023-10-09T11:12:42;29.13;;;5.65;;
9138;SDS011;4604;48.616;9.548;2023-10-09T11:15:32;30.20;;;5.40;;
9138;SDS011;4604;48.616;9.548;2023-10-09T11:18:09;20.90;;;4.57;;
9138;SDS011;4604;48.616;9.548;2023-10-09T11:20:43;17.40;;;3.97;;
9138;SDS011;4604;48.616;9.548;2023-10-09T11:23:21;28.33;;;4.47;;
9138;SDS011;4604;48.616;9.548;2023-10-09T11:26:01;18.73;;;4.28;;
9138;SDS011;4604;48.616;9.548;2023-10-09T11:28:46;33.53;;;4.55;;
9138;SDS011;4604;48.616;9.548;2023-10-09T11:31:23;20.67;;;4.38;;
9138;SDS011;4604;48.616;9.548;2023-10-09T11:33:49;28.17;;;4.63;;
9138;SDS011;4604;48.616;9.548;2023-10-09T11:36:17;22.63;;;4.65;;
9138;SDS011;4604;48.616;9.548;2023-10-09T11:38:46;27.23;;;5.75;;
9138;SDS011;4604;48.616;9.548;2023-10-09T11:41:14;31.92;;;4.65;;
9138;SDS011;4604;48.616;9.548;2023-10-09T11:43:48;22.27;;;4.43;;
9138;SDS011;4604;48.616;9.548;2023-10-09T11:46:19;24.85;;;4.85;;
9138;SDS011;4604;48.616;9.548;2023-10-09T11:49:14;24.45;;;5.03;;
9138;SDS011;4604;48.616;9.548;2023-10-09T11:52:05;25.25;;;4.80;;
9138;SDS011;4604;48.616;9.548;2023-10-09T11:54:50;27.33;;;5.57;;
9138;SDS011;4604;48.616;9.548;2023-10-09T11:57:16;25.00;;;4.63;;
9138;SDS011;4604;48.616;9.548;2023-10-09T11:59:43;19.98;;;4.38;;
9138;SDS011;4604;48.616;9.548;2023-10-09T12:02:10;21.38;;;4.50;;
9138;SDS011;4604;48.616;9.548;2023-10-09T12:04:39;23.60;;;4.88;;
9138;SDS011;4604;48.616;9.548;2023-10-09T12:07:07;20.70;;;4.65;;
9138;SDS011;4604;48.616;9.548;2023-10-09T12:09:35;23.38;;;4.35;;
9138;SDS011;4604;48.616;9.548;2023-10-09T12:12:02;17.58;;;4.53;;
9138;SDS011;4604;48.616;9.548;2023-10-09T12:14:29;14.68;;;4.53;;
9138;SDS011;4604;48.616;9.548;2023-10-09T12:16:58;29.98;;;4.28;;
9138;SDS011;4604;48.616;9.548;2023-10-09T12:19:30;21.05;;;4.55;;
9138;SDS011;4604;48.616;9.548;2023-10-09T12:21:59;19.27;;;4.10;;
9138;SDS011;4604;48.616;9.548;2023-10-09T12:24:26;18.88;;;4.40;;
9138;SDS011;4604;48.616;9.548;2023-10-09T12:26:54;14.82;;;4.90;;
9138;SDS011;4604;48.616;9.548;2023-10-09T12:29:21;20.20;;;4.28;;
9138;SDS011;4604;48.616;9.548;2023-10-09T12:31:49;14.75;;;3.70;;
9138;SDS011;4604;48.616;9.548;2023-10-09T12:34:23;15.90;;;5.25;;
9138;SDS011;4604;48.616;9.548;2023-10-09T12:36:51;16.77;;;3.83;;
9138;SDS011;4604;48.616;9.548;2023-10-09T12:39:20;11.90;;;4.25;;
9138;SDS011;4604;48.616;9.548;2023-10-09T12:41:47;17.65;;;4.15;;
9138;SDS011;4604;48.616;9.548;2023-10-09T12:44:18;24.73;;;4.47;;
9138;SDS011;4604;48.616;9.548;2023-10-09T12:46:45;25.83;;;4.88;;
9138;SDS011;4604;48.616;9.548;2023-10-09T12:49:17;13.73;;;4.18;;
9138;SDS011;4604;48.616;9.548;2023-10-09T12:51:44;18.48;;;4.53;;
9138;SDS011;4604;48.616;9.548;2023-10-09T12:54:11;25.23;;;5.05;;
9138;SDS011;4604;48.616;9.548;2023-10-09T12:56:41;25.83;;;5.15;;
9138;SDS011;4604;48.616;9.548;2023-10-09T12:59:08;19.95;;;4.45;;
9138;SDS011;4604;48.616;9.548;2023-10-09T13:01:40;22.63;;;4.65;;
9138;SDS011;4604;48.616;9.548;2023-10-09T13:04:08;21.38;;;4.65;;
9138;SDS011;4604;48.616;9.548;2023-10-09T13:06:36;16.63;;;4.40;;
9138;SDS011;4604;48.616;9.548;2023-10-09T13:09:09;17.45;;;4.63;;
9138;SDS011;4604;48.616;9.548;2023-10-09T13:11:36;17.55;;;4.95;;
9138;SDS011;4604;48.616;9.548;2023-10-09T13:14:04;18.15;;;4.97;;
9138;SDS011;4604;48.616;9.548;2023-10-09T13:16:41;20.20;;;5.38;;
9138;SDS011;4604;48.616;9.548;2023-10-09T13:19:09;20.55;;;4.07;;
9138;SDS011;4604;48.616;9.548;2023-10-09T13:21:36;16.75;;;3.65;;
9138;SDS011;4604;48.616;9.548;2023-10-09T13:24:04;18.65;;;4.15;;
9138;SDS011;4604;48.616;9.548;2023-10-09T13:26:37;27.30;;;4.45;;
9138;SDS011;4604;48.616;9.548;2023-10-09T13:29:07;20.20;;;4.40;;
9138;SDS011;4604;48.616;9.548;2023-10-09T13:31:35;18.98;;;3.85;;
9138;SDS011;4604;48.616;9.548;2023-10-09T13:34:03;19.95;;;4.85;;
9138;SDS011;4604;48.616;9.548;2023-10-09T13:36:31;14.68;;;4.65;;
9138;SDS011;4604;48.616;9.548;2023-10-09T13:39:00;20.98;;;4.50;;
9138;SDS011;4604;48.616;9.548;2023-10-09T13:41:45;17.90;;;4.88;;
9138;SDS011;4604;48.616;9.548;2023-10-09T13:44:13;19.67;;;3.70;;
9138;SDS011;4604;48.616;9.548;2023-10-09T13:46:40;15.98;;;4.30;;
9138;SDS011;4604;48.616;9.548;2023-10-09T13:49:07;18.55;;;4.22;;
9138;SDS011;4604;48.616;9.548;2023-10-09T13:51:37;12.68;;;3.92;;
9138;SDS011;4604;48.616;9.548;2023-10-09T13:54:08;12.98;;;4.43;;
9138;SDS011;4604;48.616;9.548;2023-10-09T13:56:35;25.88;;;4.25;;
9138;SDS011;4604;48.616;9.548;2023-10-09T13:59:04;22.35;;;4.75;;
9138;SDS011;4604;48.616;9.548;2023-10-09T14:01:37;27.73;;;4.35;;
9138;SDS011;4604;48.616;9.548;2023-10-09T14:04:05;27.80;;;4.90;;
9138;SDS011;4604;48.616;9.548;2023-10-09T14:06:32;24.92;;;4.07;;
9138;SDS011;4604;48.616;9.548;2023-10-09T14:09:00;18.40;;;4.80;;
9138;SDS011;4604;48.616;9.548;2023-10-09T14:11:29;16.80;;;4.35;;
9138;SDS011;4604;48.616;9.548;2023-10-09T14:13:56;19.08;;;4.63;;
9138;SDS011;4604;48.616;9.548;2023-10-09T14:16:25;16.50;;;4.05;;
9138;SDS011;4604;48.616;9.548;2023-10-09T14:18:55;16.65;;;4.10;;
9138;SDS011;4604;48.616;9.548;2023-10-09T14:21:24;17.55;;;4.30;;
9138;SDS011;4604;48.616;9.548;2023-10-09T14:23:53;27.20;;;4.82;;
9138;SDS011;4604;48.616;9.548;2023-10-09T14:26:22;18.23;;;4.28;;
9138;SDS011;4604;48.616;9.548;2023-10-09T14:28:50;22.45;;;3.85;;
9138;SDS011;4604;48.616;9.548;2023-10-09T14:31:17;23.48;;;4.53;;
9138;SDS011;4604;48.616;9.548;2023-10-09T14:33:51;19.95;;;4.07;;
9138;SDS011;4604;48.616;9.548;2023-10-09T14:36:20;21.85;;;4.43;;
9138;SDS011;4604;48.616;9.548;2023-10-09T14:38:48;16.88;;;4.63;;
9138;SDS011;4604;48.616;9.548;2023-10-09T14:41:18;13.77;;;3.85;;
9138;SDS011;4604;48.616;9.548;2023-10-09T14:43:47;20.63;;;4.50;;
9138;SDS011;4604;48.616;9.548;2023-10-09T14:46:14;15.43;;;3.92;;
9138;SDS011;4604;48.616;9.548;2023-10-09T14:48:44;24.15;;;3.83;;
9138;SDS011;4604;48.616;9.548;2023-10-09T14:51:11;17.92;;;3.95;;
9138;SDS011;4604;48.616;9.548;2023-10-09T14:53:39;18.83;;;4.47;;
9138;SDS011;4604;48.616;9.548;2023-10-09T14:56:06;11.13;;;4.88;;
9138;SDS011;4604;48.616;9.548;2023-10-09T14:58:34;17.60;;;4.35;;
9138;SDS011;4604;48.616;9.548;2023-10-09T15:01:08;11.10;;;3.90;;
9138;SDS011;4604;48.616;9.548;2023-10-09T15:03:40;16.27;;;4.10;;
9138;SDS011;4604;48.616;9.548;2023-10-09T15:06:07;15.68;;;3.95;;
9138;SDS011;4604;48.616;9.548;2023-10-09T15:08:36;14.88;;;4.68;;
9138;SDS011;4604;48.616;9.548;2023-10-09T15:11:04;12.10;;;4.50;;
9138;SDS011;4604;48.616;9.548;2023-10-09T15:13:31;21.15;;;5.28;;
9138;SDS011;4604;48.616;9.548;2023-10-09T15:15:57;17.40;;;4.32;;
9138;SDS011;4604;48.616;9.548;2023-10-09T15:18:27;23.48;;;4.72;;
9138;SDS011;4604;48.616;9.548;2023-10-09T15:20:54;13.52;;;3.85;;
9138;SDS011;4604;48.616;9.548;2023-10-09T15:23:20;15.40;;;4.40;;
9138;SDS011;4604;48.616;9.548;2023-10-09T15:25:47;16.20;;;3.83;;
9138;SDS011;4604;48.616;9.548;2023-10-09T15:28:18;24.05;;;4.53;;
9138;SDS011;4604;48.616;9.548;2023-10-09T15:30:48;13.57;;;4.55;;
9138;SDS011;4604;48.616;9.548;2023-10-09T15:33:15;18.25;;;4.57;;
9138;SDS011;4604;48.616;9.548;2023-10-09T15:35:43;18.95;;;5.07;;
9138;SDS011;4604;48.616;9.548;2023-10-09T15:38:12;12.70;;;4.13;;
9138;SDS011;4604;48.616;9.548;2023-10-09T15:40:39;24.75;;;4.88;;
9138;SDS011;4604;48.616;9.548;2023-10-09T15:43:08;16.40;;;4.03;;
9138;SDS011;4604;48.616;9.548;2023-10-09T15:45:42;20.92;;;4.28;;
9138;SDS011;4604;48.616;9.548;2023-10-09T15:48:13;23.08;;;4.57;;
9138;SDS011;4604;48.616;9.548;2023-10-09T15:50:41;13.25;;;4.13;;
9138;SDS011;4604;48.616;9.548;2023-10-09T15:53:13;18.85;;;5.10;;